Time;durP1;ratioP1;P1;durP2;ratioP2;P2;SDS_P1;SDS_P2;PMS_P1;PMS_P2;Temp;Humidity;BMP_temperature;BMP_pressure;BME280_temperature;BME280_humidity;BME280_pressure;Samples;Min_cycle;Max_cycle;Signal;HPM_P1;HPM_P2
2022/03/24 00:00:05;;;;;;;12.65;11.07;;;9.60;85.90;;;;;;5029931;28;20292;-64
2022/03/24 00:02:33;;;;;;;11.10;9.90;;;9.60;86.10;;;;;;5031283;28;20212;-63
2022/03/24 00:05:01;;;;;;;11.63;10.38;;;9.60;86.80;;;;;;5027895;28;20197;-64
2022/03/24 00:07:30;;;;;;;11.90;10.23;;;9.60;87.90;;;;;;5029219;28;20216;-63
2022/03/24 00:09:58;;;;;;;12.55;11.25;;;9.60;88.30;;;;;;5028172;28;20243;-63
2022/03/24 00:12:27;;;;;;;11.13;9.85;;;9.60;88.50;;;;;;5029441;28;20197;-64
2022/03/24 00:14:55;;;;;;;14.10;11.18;;;9.50;89.10;;;;;;5027814;28;21120;-64
2022/03/24 00:17:23;;;;;;;11.20;10.10;;;9.50;88.20;;;;;;5029301;28;20236;-64
2022/03/24 00:19:51;;;;;;;13.55;9.80;;;9.50;88.70;;;;;;5028400;28;20692;-64
2022/03/24 00:22:18;;;;;;;12.50;10.13;;;9.50;90.40;;;;;;5026995;28;20240;-62
2022/03/24 00:24:48;;;;;;;12.10;10.75;;;9.50;90.00;;;;;;5029100;28;20296;-62
2022/03/24 00:27:16;;;;;;;13.00;10.07;;;9.40;90.50;;;;;;5027267;28;20667;-61
2022/03/24 00:29:45;;;;;;;11.50;10.20;;;9.40;90.50;;;;;;5027264;28;20679;-62
2022/03/24 00:32:13;;;;;;;11.82;10.55;;;9.40;90.60;;;;;;5030684;28;20276;-62
2022/03/24 00:34:41;;;;;;;11.75;10.00;;;9.40;90.90;;;;;;5025096;28;20554;-62
2022/03/24 00:37:09;;;;;;;12.35;11.02;;;9.30;90.20;;;;;;5023274;28;20225;-61
2022/03/24 00:39:37;;;;;;;12.90;11.00;;;9.30;90.50;;;;;;5028966;28;20197;-62
2022/03/24 00:42:10;;;;;;;13.38;11.98;;;9.30;90.80;;;;;;5029267;28;20227;-62
2022/03/24 00:44:38;;;;;;;11.48;10.38;;;9.20;91.40;;;;;;5030290;28;20651;-61
2022/03/24 00:47:06;;;;;;;12.45;11.10;;;9.20;91.10;;;;;;5025666;28;20220;-62
2022/03/24 00:49:34;;;;;;;12.85;11.50;;;9.20;91.30;;;;;;5029109;28;20260;-62
2022/03/24 00:52:03;;;;;;;13.05;11.60;;;9.20;91.50;;;;;;5021505;28;20232;-62
2022/03/24 00:54:31;;;;;;;12.75;11.10;;;9.10;91.20;;;;;;5025636;28;20193;-60
2022/03/24 00:56:59;;;;;;;14.23;11.43;;;9.00;91.90;;;;;;5029922;28;20258;-61
2022/03/24 00:59:29;;;;;;;15.27;11.45;;;8.90;91.90;;;;;;5029588;28;20307;-60
2022/03/24 01:01:59;;;;;;;13.95;12.55;;;8.90;91.90;;;;;;5024158;28;20305;-61
2022/03/24 01:04:27;;;;;;;19.92;13.68;;;9.00;91.00;;;;;;5030291;28;20215;-62
2022/03/24 01:06:55;;;;;;;12.40;11.10;;;9.10;90.60;;;;;;5024186;28;20651;-61
2022/03/24 01:09:22;;;;;;;12.80;10.95;;;9.20;90.60;;;;;;5030932;28;20315;-62
2022/03/24 01:11:51;;;;;;;12.15;10.95;;;9.20;90.30;;;;;;5024916;28;20258;-61
2022/03/24 01:14:19;;;;;;;14.65;11.02;;;9.10;90.70;;;;;;5031080;28;20239;-62
2022/03/24 01:16:51;;;;;;;12.98;11.13;;;9.10;91.10;;;;;;5020721;28;20247;-62
2022/03/24 01:19:19;;;;;;;14.10;12.05;;;9.10;91.20;;;;;;5011555;28;20213;-62
2022/03/24 01:21:46;;;;;;;12.63;11.32;;;9.00;92.00;;;;;;5028333;28;20224;-62
2022/03/24 01:24:14;;;;;;;13.00;11.70;;;9.00;92.10;;;;;;5023036;28;20208;-61
2022/03/24 01:26:42;;;;;;;12.88;11.55;;;9.00;91.80;;;;;;5021158;28;20197;-61
2022/03/24 01:29:11;;;;;;;12.57;10.48;;;8.90;91.90;;;;;;5011366;28;20683;-62
2022/03/24 01:31:42;;;;;;;13.25;11.88;;;9.00;92.40;;;;;;5021342;28;20339;-62
2022/03/24 01:34:11;;;;;;;16.05;11.45;;;8.90;92.50;;;;;;5015171;28;20221;-62
2022/03/24 01:36:39;;;;;;;12.80;11.20;;;8.80;92.60;;;;;;5023485;28;20262;-61
2022/03/24 01:39:08;;;;;;;12.68;10.70;;;8.80;93.00;;;;;;5014915;28;20321;-62
2022/03/24 01:41:38;;;;;;;15.07;12.35;;;8.60;92.90;;;;;;5021567;28;20308;-62
2022/03/24 01:44:12;;;;;;;12.20;11.00;;;8.60;93.60;;;;;;5022813;28;20245;-62
2022/03/24 01:46:54;;;;;;;17.13;12.98;;;8.70;92.80;;;;;;5023292;28;20235;-62
2022/03/24 01:49:24;;;;;;;14.07;12.63;;;8.70;92.10;;;;;;5025385;28;20238;-62
2022/03/24 01:51:51;;;;;;;13.07;11.63;;;8.70;92.90;;;;;;5016592;28;20293;-62
2022/03/24 01:54:21;;;;;;;13.07;11.45;;;8.60;92.80;;;;;;5025413;28;20251;-62
2022/03/24 01:56:50;;;;;;;13.60;12.00;;;8.60;92.80;;;;;;5024179;28;20235;-63
2022/03/24 01:59:19;;;;;;;14.15;12.75;;;8.70;92.40;;;;;;5020867;28;20325;-62
2022/03/24 02:01:48;;;;;;;13.43;11.80;;;8.60;92.80;;;;;;5022365;28;20279;-62
2022/03/24 02:04:16;;;;;;;12.82;10.88;;;8.60;93.00;;;;;;5014302;28;20220;-62
2022/03/24 02:06:45;;;;;;;12.32;11.10;;;8.60;93.00;;;;;;5023241;28;20225;-62
2022/03/24 02:09:15;;;;;;;16.70;12.70;;;8.60;92.60;;;;;;5034229;28;20304;-62
2022/03/24 02:11:43;;;;;;;15.20;12.77;;;8.60;92.30;;;;;;5022753;28;20283;-62
2022/03/24 02:14:11;;;;;;;15.30;13.10;;;8.60;92.00;;;;;;5021251;28;20225;-62
2022/03/24 02:16:41;;;;;;;16.10;13.00;;;8.50;91.60;;;;;;5020440;28;20185;-61
2022/03/24 02:19:11;;;;;;;15.25;13.30;;;8.50;92.40;;;;;;5021565;28;20632;-61
2022/03/24 02:21:39;;;;;;;14.80;13.02;;;8.40;91.60;;;;;;5031976;28;20638;-62
2022/03/24 02:24:10;;;;;;;15.82;13.73;;;8.40;92.00;;;;;;5017133;28;20271;-61
2022/03/24 02:26:40;;;;;;;16.25;12.57;;;8.50;92.30;;;;;;5020758;28;20228;-61
2022/03/24 02:29:10;;;;;;;14.07;12.73;;;8.50;92.40;;;;;;5020564;28;20698;-62
2022/03/24 02:31:42;;;;;;;12.85;11.52;;;8.50;92.40;;;;;;5025968;28;20228;-61
2022/03/24 02:36:57;;;;;;;13.88;12.50;;;8.50;93.20;;;;;;5021330;28;20587;-62
2022/03/24 02:39:28;;;;;;;14.25;12.73;;;8.50;92.50;;;;;;5018935;28;20670;-62
2022/03/24 02:41:57;;;;;;;12.98;11.68;;;8.50;92.80;;;;;;5023152;28;20288;-61
2022/03/24 02:44:27;;;;;;;16.77;12.68;;;8.50;93.50;;;;;;5018227;28;20825;-61
2022/03/24 02:46:57;;;;;;;14.95;13.48;;;8.50;93.40;;;;;;5022631;28;20225;-61
2022/03/24 02:49:26;;;;;;;14.55;11.85;;;8.50;93.40;;;;;;5018687;28;20241;-61
2022/03/24 02:51:58;;;;;;;17.70;13.20;;;8.40;93.30;;;;;;5029051;28;20276;-62
2022/03/24 02:54:28;;;;;;;16.75;14.10;;;8.40;93.70;;;;;;5025549;28;20233;-61
2022/03/24 02:56:56;;;;;;;15.35;12.48;;;8.30;92.50;;;;;;5025028;28;20287;-61
2022/03/24 02:59:24;;;;;;;14.73;13.10;;;8.30;93.90;;;;;;5026602;28;20244;-61
2022/03/24 03:01:54;;;;;;;13.57;12.15;;;8.30;93.50;;;;;;5030452;28;20620;-61
2022/03/24 03:04:22;;;;;;;15.27;13.68;;;8.30;93.50;;;;;;5012936;28;20213;-60
2022/03/24 03:06:50;;;;;;;19.10;14.25;;;8.30;92.70;;;;;;5022092;28;20247;-62
2022/03/24 03:09:18;;;;;;;15.77;14.07;;;8.20;91.90;;;;;;5026566;28;20221;-61
2022/03/24 03:11:48;;;;;;;16.48;13.32;;;8.20;92.60;;;;;;5023018;28;20228;-62
2022/03/24 03:14:18;;;;;;;16.45;13.52;;;8.20;93.00;;;;;;5015373;28;20281;-62
2022/03/24 03:16:47;;;;;;;16.27;13.55;;;8.20;93.40;;;;;;5021464;28;20212;-62
2022/03/24 03:19:19;;;;;;;14.90;13.15;;;8.20;92.50;;;;;;5014635;28;20213;-62
2022/03/24 03:21:49;;;;;;;15.65;13.35;;;8.20;92.60;;;;;;5021345;28;20225;-62
2022/03/24 03:24:18;;;;;;;17.50;13.95;;;8.10;93.30;;;;;;5021390;28;20241;-62
2022/03/24 03:26:47;;;;;;;16.83;14.25;;;8.20;93.50;;;;;;5026414;28;20204;-61
2022/03/24 03:29:17;;;;;;;16.05;14.35;;;8.20;93.90;;;;;;5028017;28;20300;-61
2022/03/24 03:31:45;;;;;;;15.80;13.57;;;8.30;93.50;;;;;;5023497;28;20239;-62
2022/03/24 03:34:14;;;;;;;14.95;12.90;;;8.30;94.00;;;;;;5020048;28;20220;-62
2022/03/24 03:36:44;;;;;;;15.82;13.50;;;8.30;94.20;;;;;;5021100;28;20240;-62
2022/03/24 03:39:12;;;;;;;15.90;14.23;;;8.20;94.60;;;;;;5020944;28;20221;-62
2022/03/24 03:41:41;;;;;;;14.73;13.32;;;8.20;95.00;;;;;;5020740;28;20193;-62
2022/03/24 03:44:11;;;;;;;15.00;13.15;;;8.10;95.00;;;;;;5018089;28;20248;-62
2022/03/24 03:46:39;;;;;;;14.57;13.10;;;8.10;95.40;;;;;;5019210;28;20228;-62
2022/03/24 03:49:08;;;;;;;15.13;13.60;;;8.10;95.60;;;;;;5020388;28;20322;-61
2022/03/24 03:51:37;;;;;;;17.90;14.73;;;8.10;95.50;;;;;;5015681;28;20279;-60
2022/03/24 03:54:07;;;;;;;17.65;15.90;;;8.10;95.80;;;;;;5020197;28;20275;-61
2022/03/24 03:56:37;;;;;;;22.02;14.43;;;8.00;95.30;;;;;;5018039;28;20189;-61
2022/03/24 03:59:05;;;;;;;16.63;14.85;;;8.00;96.60;;;;;;5030740;28;20224;-61
2022/03/24 04:01:36;;;;;;;16.65;14.95;;;8.00;95.90;;;;;;5020603;28;20193;-61
2022/03/24 04:04:06;;;;;;;17.25;13.77;;;7.90;96.30;;;;;;5021438;28;20693;-61
2022/03/24 04:06:34;;;;;;;16.42;14.73;;;7.90;96.50;;;;;;5055919;22;20323;-63
2022/03/24 04:09:02;;;;;;;16.00;14.40;;;7.90;96.30;;;;;;5050939;28;20278;-62
2022/03/24 04:11:30;;;;;;;16.00;13.95;;;7.90;95.90;;;;;;5051054;28;20633;-63
2022/03/24 04:13:58;;;;;;;16.27;14.55;;;7.80;96.50;;;;;;5051359;28;20226;-63
2022/03/24 04:16:26;;;;;;;17.02;15.32;;;7.70;97.00;;;;;;5043868;28;20248;-63
2022/03/24 04:18:55;;;;;;;15.32;13.77;;;7.60;96.90;;;;;;5031664;28;20287;-62
2022/03/24 04:21:23;;;;;;;14.95;13.38;;;7.60;96.80;;;;;;5030661;28;20279;-61
2022/03/24 04:23:51;;;;;;;16.48;14.73;;;7.60;96.60;;;;;;5031407;28;20626;-63
2022/03/24 04:26:19;;;;;;;16.58;14.82;;;7.60;96.50;;;;;;5030561;28;20303;-63
2022/03/24 04:28:47;;;;;;;14.43;12.85;;;7.50;96.20;;;;;;5031178;28;20220;-63
2022/03/24 04:31:16;;;;;;;16.38;14.82;;;7.50;96.70;;;;;;5030639;28;20284;-63
2022/03/24 04:33:44;;;;;;;17.50;14.98;;;7.50;96.40;;;;;;5031311;28;20205;-63
2022/03/24 04:36:13;;;;;;;17.20;15.50;;;7.50;96.50;;;;;;5031380;28;20251;-62
2022/03/24 04:38:41;;;;;;;15.23;13.68;;;7.40;96.10;;;;;;5029131;28;20718;-63
2022/03/24 04:41:09;;;;;;;16.88;13.35;;;7.40;96.40;;;;;;5031324;28;20228;-63
2022/03/24 04:43:37;;;;;;;16.38;14.65;;;7.40;97.10;;;;;;5027739;28;20279;-62
2022/03/24 04:46:05;;;;;;;15.65;14.05;;;7.50;96.60;;;;;;5023531;28;20308;-62
2022/03/24 04:48:36;;;;;;;17.40;14.50;;;7.50;96.80;;;;;;5028267;28;20224;-62
2022/03/24 04:51:06;;;;;;;16.80;14.07;;;7.50;96.90;;;;;;5027506;28;20275;-61
2022/03/24 04:53:36;;;;;;;17.20;14.32;;;7.60;96.80;;;;;;5030639;28;20201;-62
2022/03/24 04:56:04;;;;;;;15.80;14.25;;;7.50;96.40;;;;;;5049868;28;20299;-63
2022/03/24 04:58:32;;;;;;;19.63;14.70;;;7.60;96.10;;;;;;5035134;28;20690;-62
2022/03/24 05:01:00;;;;;;;16.65;14.82;;;7.50;97.10;;;;;;5028321;28;20197;-60
2022/03/24 05:03:29;;;;;;;15.20;13.68;;;7.50;97.20;;;;;;5021446;28;20196;-60
2022/03/24 05:05:57;;;;;;;16.42;14.68;;;7.40;97.00;;;;;;5012587;28;20217;-61
2022/03/24 05:08:24;;;;;;;16.75;15.15;;;7.30;97.90;;;;;;5026266;28;20275;-60
2022/03/24 05:10:54;;;;;;;16.75;15.02;;;7.20;99.40;;;;;;5029974;28;20780;-59
2022/03/24 05:13:21;;;;;;;16.27;14.68;;;7.10;99.60;;;;;;5029895;28;20795;-61
2022/03/24 05:15:49;;;;;;;15.98;14.32;;;7.10;99.90;;;;;;5019600;28;20287;-59
2022/03/24 05:18:17;;;;;;;23.20;15.00;;;7.10;99.90;;;;;;5021006;28;20206;-59
2022/03/24 05:20:45;;;;;;;15.32;13.82;;;7.20;99.90;;;;;;5023662;28;20215;-61
2022/03/24 05:23:13;;;;;;;15.55;13.95;;;7.30;99.90;;;;;;5024419;28;20327;-61
2022/03/24 05:25:43;;;;;;;17.65;14.00;;;7.50;99.90;;;;;;5020115;28;20232;-62
2022/03/24 05:28:13;;;;;;;16.10;14.45;;;7.60;99.40;;;;;;5025858;28;20224;-62
2022/03/24 05:30:41;;;;;;;17.08;15.38;;;7.70;99.80;;;;;;5018314;28;20647;-62
2022/03/24 05:33:14;;;;;;;15.80;13.38;;;7.80;99.20;;;;;;5019650;28;20208;-63
2022/03/24 05:35:42;;;;;;;15.73;14.32;;;7.80;99.30;;;;;;5027570;28;20307;-63
2022/03/24 05:38:10;;;;;;;14.98;13.50;;;7.80;99.60;;;;;;5023305;28;20638;-62
2022/03/24 05:40:38;;;;;;;15.07;13.57;;;8.00;99.10;;;;;;5020365;28;20291;-62
2022/03/24 05:43:06;;;;;;;15.77;12.73;;;8.10;98.60;;;;;;5029071;28;20212;-62
2022/03/24 05:45:36;;;;;;;15.25;13.25;;;8.30;99.40;;;;;;5020721;28;20212;-61
2022/03/24 05:48:04;;;;;;;13.98;12.68;;;8.10;98.90;;;;;;5017148;28;20208;-62
2022/03/24 05:50:32;;;;;;;18.17;13.90;;;8.20;99.00;;;;;;5025925;28;20200;-61
2022/03/24 05:53:00;;;;;;;17.70;15.00;;;8.20;98.40;;;;;;5022295;28;20208;-60
2022/03/24 05:55:29;;;;;;;16.13;14.32;;;8.20;99.00;;;;;;5021877;28;21039;-61
2022/03/24 05:57:56;;;;;;;16.60;14.73;;;8.20;99.60;;;;;;5026959;28;20323;-63
2022/03/24 06:00:24;;;;;;;15.77;14.15;;;8.40;98.40;;;;;;5023627;28;20322;-62
2022/03/24 06:02:54;;;;;;;15.10;13.52;;;8.40;98.30;;;;;;5026327;28;20715;-61
2022/03/24 06:05:23;;;;;;;18.13;16.20;;;8.50;99.60;;;;;;5026906;28;20269;-60
2022/03/24 06:07:51;;;;;;;20.77;14.48;;;8.50;98.40;;;;;;5020829;28;20926;-59
2022/03/24 06:10:19;;;;;;;18.65;14.27;;;8.70;98.30;;;;;;5019752;28;20236;-61
2022/03/24 06:12:47;;;;;;;22.92;16.00;;;8.80;99.90;;;;;;5027045;28;20200;-61
2022/03/24 06:15:15;;;;;;;20.27;15.38;;;8.80;99.90;;;;;;5029554;28;20309;-62
2022/03/24 06:17:43;;;;;;;19.52;13.77;;;9.00;99.90;;;;;;5024442;28;20227;-61
2022/03/24 06:20:13;;;;;;;17.20;14.50;;;9.10;99.90;;;;;;5022033;28;20780;-62
2022/03/24 06:22:43;;;;;;;19.92;14.77;;;9.30;99.90;;;;;;5025157;28;20966;-62
2022/03/24 06:25:11;;;;;;;19.27;15.65;;;9.30;99.90;;;;;;5020507;28;20217;-61
2022/03/24 06:27:40;;;;;;;17.70;15.90;;;9.30;99.90;;;;;;5026578;28;20224;-61
2022/03/24 06:30:09;;;;;;;16.95;15.13;;;9.40;99.90;;;;;;5021923;28;20300;-61
2022/03/24 06:32:37;;;;;;;17.92;13.30;;;9.40;99.90;;;;;;5026879;28;20211;-62
2022/03/24 06:35:05;;;;;;;21.88;16.30;;;9.40;99.90;;;;;;5026598;28;20282;-61
2022/03/24 06:37:39;;;;;;;20.08;15.85;;;9.40;99.50;;;;;;5019222;28;20296;-61
2022/03/24 06:40:09;;;;;;;18.00;15.98;;;9.30;97.90;;;;;;5017417;28;20327;-62
2022/03/24 06:42:37;;;;;;;18.40;16.50;;;9.20;96.00;;;;;;5000256;28;20319;-60
2022/03/24 06:45:07;;;;;;;18.67;15.05;;;8.90;96.30;;;;;;5022163;28;20288;-60
2022/03/24 06:47:35;;;;;;;21.33;17.45;;;8.80;99.50;;;;;;5018037;28;20763;-61
2022/03/24 06:50:04;;;;;;;17.60;15.13;;;8.80;97.40;;;;;;5021888;28;20212;-62
2022/03/24 06:52:32;;;;;;;19.70;17.70;;;8.70;98.60;;;;;;5018432;28;20322;-62
2022/03/24 06:55:01;;;;;;;20.25;17.40;;;8.70;96.80;;;;;;5027894;28;20201;-60
2022/03/24 06:57:30;;;;;;;18.98;16.27;;;8.70;97.50;;;;;;5019824;28;20248;-61
2022/03/24 06:59:57;;;;;;;18.15;15.75;;;8.80;96.80;;;;;;5021535;28;20204;-60
2022/03/24 07:02:25;;;;;;;19.20;16.95;;;8.80;97.80;;;;;;5024596;28;20208;-61
2022/03/24 07:04:54;;;;;;;16.27;14.75;;;8.70;96.60;;;;;;5003915;28;20205;-61
2022/03/24 07:07:21;;;;;;;19.23;15.85;;;8.80;97.90;;;;;;5025393;28;20312;-61
2022/03/24 07:09:49;;;;;;;18.88;15.45;;;8.80;96.50;;;;;;5019523;28;21903;-62
2022/03/24 07:12:20;;;;;;;20.05;15.98;;;8.80;98.20;;;;;;5021584;28;20222;-63
2022/03/24 07:14:48;;;;;;;19.60;17.70;;;9.00;96.60;;;;;;5028761;28;20201;-63
2022/03/24 07:17:17;;;;;;;17.65;15.85;;;9.00;95.30;;;;;;5032713;28;20735;-63
2022/03/24 07:19:45;;;;;;;19.63;17.55;;;9.00;96.10;;;;;;5021094;28;20700;-62
2022/03/24 07:22:13;;;;;;;20.85;15.73;;;9.20;96.10;;;;;;5032198;28;20738;-63
2022/03/24 07:24:41;;;;;;;24.52;16.90;;;9.30;98.20;;;;;;5031043;28;20224;-63
2022/03/24 07:27:10;;;;;;;21.08;17.10;;;9.50;97.10;;;;;;5031705;28;20238;-63
2022/03/24 07:29:39;;;;;;;18.20;16.20;;;9.60;96.30;;;;;;5030997;28;20221;-63
2022/03/24 07:32:08;;;;;;;21.52;17.30;;;9.80;97.10;;;;;;5032013;28;20642;-63
2022/03/24 07:34:36;;;;;;;18.40;16.42;;;9.90;94.90;;;;;;5031962;28;20693;-63
2022/03/24 07:37:05;;;;;;;22.58;17.95;;;10.10;95.10;;;;;;5032477;28;21019;-63
2022/03/24 07:39:33;;;;;;;19.65;17.55;;;10.20;95.40;;;;;;5032192;28;20228;-62
2022/03/24 07:42:01;;;;;;;22.02;17.40;;;10.30;94.40;;;;;;5032043;28;20197;-63
2022/03/24 07:44:29;;;;;;;19.20;17.20;;;10.50;96.50;;;;;;5032195;28;20242;-62
2022/03/24 07:46:58;;;;;;;19.67;17.63;;;10.60;93.60;;;;;;5032435;28;20248;-62
2022/03/24 07:49:26;;;;;;;25.02;17.20;;;10.80;94.50;;;;;;5032016;28;20630;-63
2022/03/24 07:51:54;;;;;;;18.92;16.92;;;10.90;93.60;;;;;;5032285;28;20196;-63
2022/03/24 07:54:45;;;;;;;20.10;16.65;;;11.00;92.80;;;;;;5031983;28;20208;-63
2022/03/24 07:57:13;;;;;;;23.15;18.88;;;11.10;93.20;;;;;;5032010;28;20244;-63
2022/03/24 07:59:41;;;;;;;19.63;17.50;;;11.10;92.30;;;;;;5032164;28;20280;-63
2022/03/24 08:02:11;;;;;;;23.67;17.42;;;11.20;92.80;;;;;;5032133;28;20231;-63
2022/03/24 08:04:40;;;;;;;18.67;16.30;;;11.40;92.30;;;;;;5032248;28;20197;-63
2022/03/24 08:07:08;;;;;;;22.63;18.88;;;11.70;93.90;;;;;;5031470;28;20797;-63
2022/03/24 08:09:35;;;;;;;20.38;17.02;;;11.90;91.70;;;;;;5031726;28;20295;-63
2022/03/24 08:12:10;;;;;;;25.88;19.00;;;12.10;91.00;;;;;;5031816;28;20215;-63
2022/03/24 08:14:38;;;;;;;24.92;19.15;;;12.10;91.30;;;;;;5031927;28;20228;-63
2022/03/24 08:17:06;;;;;;;19.00;16.73;;;12.40;91.10;;;;;;5031970;28;20311;-63
2022/03/24 08:19:35;;;;;;;24.90;19.50;;;12.70;92.00;;;;;;5031810;28;20287;-63
2022/03/24 08:22:03;;;;;;;19.45;17.30;;;12.80;91.50;;;;;;5031319;28;20224;-62
2022/03/24 08:24:31;;;;;;;19.23;16.83;;;13.00;91.30;;;;;;5031719;28;20231;-62
2022/03/24 08:26:59;;;;;;;19.48;17.48;;;13.00;91.10;;;;;;5031221;28;20259;-63
2022/03/24 08:29:27;;;;;;;18.08;16.25;;;13.10;90.10;;;;;;5031286;28;20224;-63
2022/03/24 08:31:55;;;;;;;24.38;19.52;;;13.10;91.40;;;;;;5031425;28;20239;-62
2022/03/24 08:34:28;;;;;;;20.40;18.13;;;13.40;90.60;;;;;;5031288;28;20613;-63
2022/03/24 08:36:58;;;;;;;20.95;18.77;;;13.60;90.90;;;;;;5031733;28;20240;-62
2022/03/24 08:39:25;;;;;;;22.50;19.02;;;13.80;90.10;;;;;;5030893;28;20279;-63
2022/03/24 08:41:54;;;;;;;20.88;18.42;;;14.00;90.60;;;;;;5030889;28;20235;-63
2022/03/24 08:44:22;;;;;;;25.38;19.88;;;14.20;89.90;;;;;;5031479;28;20201;-64
2022/03/24 08:46:49;;;;;;;20.17;18.15;;;14.20;88.40;;;;;;5031507;28;20212;-64
2022/03/24 08:49:18;;;;;;;23.92;18.67;;;14.10;89.50;;;;;;5031161;28;20197;-64
2022/03/24 08:51:47;;;;;;;20.90;18.67;;;14.10;89.80;;;;;;5031576;28;20189;-64
2022/03/24 08:54:16;;;;;;;20.33;18.13;;;14.40;88.70;;;;;;5030752;28;20193;-64
2022/03/24 08:56:44;;;;;;;22.25;19.85;;;14.20;85.90;;;;;;5030864;28;20221;-64
2022/03/24 08:59:12;;;;;;;21.02;18.88;;;14.20;86.30;;;;;;5030062;28;20295;-64
2022/03/24 09:01:41;;;;;;;21.90;19.60;;;14.40;88.70;;;;;;5030670;28;20275;-63
2022/03/24 09:04:10;;;;;;;24.95;21.85;;;14.60;89.10;;;;;;5030808;28;20197;-64
2022/03/24 09:06:38;;;;;;;21.33;18.90;;;15.00;85.10;;;;;;5031001;28;20228;-64
2022/03/24 09:09:07;;;;;;;23.55;18.30;;;15.10;85.10;;;;;;5031141;28;20228;-64
2022/03/24 09:11:36;;;;;;;24.42;19.65;;;15.20;85.80;;;;;;5030554;28;20612;-64
2022/03/24 09:14:04;;;;;;;22.83;19.40;;;15.50;84.30;;;;;;5030661;28;20296;-64
2022/03/24 09:16:32;;;;;;;21.60;19.30;;;15.70;83.60;;;;;;5031225;28;20239;-64
2022/03/24 09:19:00;;;;;;;23.75;21.02;;;15.80;84.30;;;;;;5031256;28;20542;-64
2022/03/24 09:21:28;;;;;;;26.40;22.73;;;16.00;83.20;;;;;;5030881;28;20232;-64
2022/03/24 09:23:56;;;;;;;26.80;22.38;;;16.20;84.50;;;;;;5030060;28;20220;-64
2022/03/24 09:26:24;;;;;;;23.23;20.58;;;16.40;82.60;;;;;;5031081;28;20247;-64
2022/03/24 09:29:01;;;;;;;25.20;22.55;;;16.60;82.50;;;;;;5031173;28;20189;-64
2022/03/24 09:31:29;;;;;;;23.52;21.23;;;16.70;81.20;;;;;;5031003;28;20201;-64
2022/03/24 09:33:57;;;;;;;23.98;21.40;;;16.80;81.50;;;;;;5030276;28;20658;-64
2022/03/24 09:36:25;;;;;;;22.83;20.45;;;16.80;82.20;;;;;;5030765;28;20256;-65
2022/03/24 09:38:53;;;;;;;23.95;21.35;;;16.80;82.20;;;;;;5031044;28;20267;-64
2022/03/24 09:41:25;;;;;;;23.95;21.25;;;17.20;81.50;;;;;;5030989;28;20189;-65
2022/03/24 09:43:53;;;;;;;28.67;22.98;;;17.30;82.20;;;;;;5030344;28;20224;-64
2022/03/24 09:46:23;;;;;;;26.45;21.48;;;17.60;80.50;;;;;;5030661;28;20789;-64
2022/03/24 09:48:51;;;;;;;23.38;20.98;;;17.90;80.70;;;;;;5030888;28;20228;-64
2022/03/24 09:51:19;;;;;;;26.77;20.92;;;18.20;79.60;;;;;;5030852;28;20224;-65
2022/03/24 09:53:47;;;;;;;24.08;21.65;;;18.40;79.00;;;;;;5033852;28;20297;-64
2022/03/24 09:56:16;;;;;;;23.50;21.10;;;18.50;77.30;;;;;;5034246;28;20222;-64
2022/03/24 09:58:45;;;;;;;27.50;21.40;;;18.70;78.40;;;;;;5034428;28;20402;-65
2022/03/24 10:01:17;;;;;;;26.25;22.85;;;19.00;78.70;;;;;;5034207;28;20621;-64
2022/03/24 10:04:07;;;;;;;25.27;22.52;;;19.10;77.00;;;;;;5033876;28;20654;-65
2022/03/24 10:06:39;;;;;;;26.52;23.90;;;18.70;76.50;;;;;;5058069;22;20282;-63
2022/03/24 10:09:07;;;;;;;27.20;23.35;;;18.90;77.00;;;;;;5026335;28;20193;-64
2022/03/24 10:11:36;;;;;;;29.52;23.05;;;19.10;77.10;;;;;;5033837;28;20199;-62
2022/03/24 10:14:05;;;;;;;23.88;21.55;;;19.40;76.70;;;;;;5033918;28;20283;-63
2022/03/24 10:16:41;;;;;;;23.90;21.33;;;19.60;75.70;;;;;;5030686;28;20608;-63
2022/03/24 10:19:13;;;;;;;29.80;23.67;;;20.00;76.40;;;;;;5014319;28;20224;-64
2022/03/24 10:21:43;;;;;;;27.20;22.23;;;20.20;75.70;;;;;;5014503;28;20233;-63
2022/03/24 10:24:14;;;;;;;24.77;22.05;;;20.20;75.80;;;;;;5013677;28;20216;-63
2022/03/24 10:26:44;;;;;;;25.42;22.27;;;20.60;74.20;;;;;;5013863;28;20656;-64
2022/03/24 10:29:14;;;;;;;33.03;27.02;;;20.60;73.70;;;;;;5013669;28;20240;-65
2022/03/24 10:31:43;;;;;;;29.83;24.13;;;20.80;74.00;;;;;;5013999;28;20288;-63
2022/03/24 10:34:13;;;;;;;29.48;25.05;;;21.00;73.20;;;;;;5013954;28;20236;-64
2022/03/24 10:36:45;;;;;;;26.77;23.00;;;21.20;72.80;;;;;;5014079;28;20244;-64
2022/03/24 10:39:12;;;;;;;30.95;24.80;;;21.30;73.10;;;;;;5013971;28;20190;-64
2022/03/24 10:41:40;;;;;;;26.75;22.23;;;21.40;71.30;;;;;;5013932;28;20236;-64
2022/03/24 10:44:11;;;;;;;25.92;23.13;;;21.30;71.60;;;;;;5013975;28;20265;-63
2022/03/24 10:46:42;;;;;;;28.63;25.30;;;21.20;72.50;;;;;;5013638;28;20221;-63
2022/03/24 10:49:18;;;;;;;25.25;22.55;;;21.40;72.50;;;;;;5013902;28;20633;-63
2022/03/24 10:51:48;;;;;;;27.23;24.20;;;21.70;71.90;;;;;;5013844;28;20193;-63
2022/03/24 10:54:25;;;;;;;31.63;26.05;;;22.00;72.40;;;;;;5013446;28;20285;-64
2022/03/24 10:56:58;;;;;;;27.15;23.98;;;21.40;69.80;;;;;;5013392;28;20213;-63
2022/03/24 10:59:29;;;;;;;27.20;24.30;;;21.60;71.20;;;;;;5018218;28;20244;-63
2022/03/24 11:01:57;;;;;;;30.75;26.52;;;22.00;70.90;;;;;;5013499;28;20201;-63
2022/03/24 11:04:27;;;;;;;28.65;25.73;;;22.30;71.00;;;;;;5013126;28;20193;-63
2022/03/24 11:06:55;;;;;;;30.95;25.00;;;22.70;69.90;;;;;;5012897;28;20264;-64
2022/03/24 11:09:24;;;;;;;29.77;24.80;;;23.00;69.00;;;;;;5013377;28;20221;-64
2022/03/24 11:12:25;;;;;;;31.55;24.67;;;23.30;66.90;;;;;;5013387;28;20272;-64
2022/03/24 11:14:55;;;;;;;30.45;26.58;;;22.90;66.90;;;;;;5013277;28;20685;-64
2022/03/24 11:17:25;;;;;;;31.67;28.10;;;23.20;67.30;;;;;;5013002;28;20213;-64
2022/03/24 11:20:06;;;;;;;31.63;27.50;;;22.90;65.70;;;;;;5013405;28;20188;-63
2022/03/24 11:22:41;;;;;;;33.78;26.98;;;22.30;66.80;;;;;;5013030;28;20243;-64
2022/03/24 11:25:10;;;;;;;34.45;27.83;;;22.20;66.80;;;;;;5013031;28;20220;-64
2022/03/24 11:27:39;;;;;;;32.33;24.98;;;22.00;67.20;;;;;;5017238;28;20221;-65
2022/03/24 11:30:10;;;;;;;33.55;27.63;;;22.40;66.90;;;;;;5012755;28;20225;-63
2022/03/24 11:32:41;;;;;;;34.13;29.88;;;22.20;67.30;;;;;;5012986;28;20201;-63
2022/03/24 11:35:12;;;;;;;30.55;27.27;;;22.30;65.70;;;;;;5012849;28;20229;-64
2022/03/24 11:37:40;;;;;;;31.60;26.70;;;22.60;66.10;;;;;;5012846;28;20710;-63
2022/03/24 11:40:10;;;;;;;32.47;28.88;;;22.80;65.60;;;;;;5012724;28;20201;-63
2022/03/24 11:42:45;;;;;;;33.22;28.23;;;23.00;65.20;;;;;;5012713;28;20263;-64
2022/03/24 11:45:19;;;;;;;29.90;26.70;;;23.60;64.30;;;;;;5012717;28;20300;-64
2022/03/24 11:47:56;;;;;;;33.03;28.00;;;24.30;64.20;;;;;;5012581;28;20247;-64
2022/03/24 11:50:45;;;;;;;32.00;28.60;;;24.30;63.20;;;;;;5012673;28;20216;-64
2022/03/24 11:53:19;;;;;;;35.45;31.63;;;24.30;62.50;;;;;;5012785;28;20229;-63
2022/03/24 11:56:18;;;;;;;34.22;30.52;;;24.20;62.30;;;;;;5012464;28;20236;-64
2022/03/24 11:59:23;;;;;;;34.03;28.60;;;24.50;61.40;;;;;;5017282;28;20221;-64
2022/03/24 12:02:17;;;;;;;34.95;31.25;;;24.50;61.50;;;;;;5012421;28;20205;-63
2022/03/24 12:04:50;;;;;;;36.13;29.85;;;24.80;60.80;;;;;;5012636;28;20208;-64
2022/03/24 12:07:20;;;;;;;36.40;32.50;;;24.30;60.10;;;;;;5011852;28;20229;-63
2022/03/24 12:09:56;;;;;;;35.70;31.63;;;23.90;62.80;;;;;;5012553;28;20260;-62
2022/03/24 12:12:25;;;;;;;31.63;28.23;;;23.70;61.20;;;;;;5012229;28;20606;-63
2022/03/24 12:14:54;;;;;;;34.40;29.58;;;24.40;61.10;;;;;;5012314;28;20201;-64
2022/03/24 12:17:25;;;;;;;33.78;28.58;;;24.80;60.50;;;;;;5011271;28;20686;-64
2022/03/24 12:19:55;;;;;;;32.33;25.38;;;25.10;58.20;;;;;;5012247;28;20251;-64
2022/03/24 12:22:38;;;;;;;28.33;24.95;;;25.00;58.30;;;;;;5012123;28;20569;-63
2022/03/24 12:25:25;;;;;;;30.02;26.08;;;25.30;57.40;;;;;;5012595;28;20189;-64
2022/03/24 12:28:23;;;;;;;30.33;26.67;;;24.90;57.10;;;;;;5016205;28;20697;-64
2022/03/24 12:30:54;;;;;;;26.20;23.40;;;24.70;58.70;;;;;;5012282;28;20235;-64
2022/03/24 12:33:34;;;;;;;28.98;25.85;;;24.90;56.00;;;;;;5011963;28;20189;-64
2022/03/24 12:36:03;;;;;;;24.05;21.63;;;25.30;57.30;;;;;;5011953;28;20235;-64
2022/03/24 12:38:45;;;;;;;24.80;20.42;;;25.30;54.80;;;;;;5011961;28;20652;-64
2022/03/24 12:41:25;;;;;;;25.55;22.95;;;25.60;55.00;;;;;;5011926;28;20231;-63
2022/03/24 12:44:07;;;;;;;29.90;24.90;;;25.20;54.40;;;;;;5011677;28;20193;-63
2022/03/24 12:46:38;;;;;;;32.17;22.95;;;24.00;55.20;;;;;;5011625;28;20263;-63
2022/03/24 12:49:27;;;;;;;24.90;22.15;;;24.70;55.70;;;;;;5011763;28;20706;-63